createdAt,value
2019-04-03T00:00:58.735Z,6.8
2019-04-03T00:06:27.484Z,6.8
2019-04-03T00:11:56.066Z,6.8
2019-04-03T00:17:23.836Z,6.8
2019-04-03T00:22:51.873Z,6.8
2019-04-03T00:28:18.967Z,6.8
2019-04-03T00:33:47.710Z,6.7
2019-04-03T00:39:16.335Z,6.7
2019-04-03T00:44:46.293Z,6.6
2019-04-03T00:50:12.571Z,6.6
2019-04-03T00:55:41.288Z,6.5
2019-04-03T01:01:08.678Z,6.4
2019-04-03T01:06:36.378Z,6.4
2019-04-03T01:12:04.154Z,6.3
2019-04-03T01:17:34.110Z,6.3
2019-04-03T01:23:00.084Z,6.3
2019-04-03T01:28:27.707Z,6.3
2019-04-03T01:33:56.357Z,6.3
2019-04-03T01:39:24.935Z,6.4
2019-04-03T01:44:59.627Z,6.5
2019-04-03T01:50:21.130Z,6.6
2019-04-03T01:55:49.776Z,6.6
2019-04-03T02:01:17.580Z,6.7
2019-04-03T02:06:45.076Z,6.8
2019-04-03T02:12:13.728Z,6.9
2019-04-03T02:17:42.471Z,6.9
2019-04-03T02:23:11.292Z,7
2019-04-03T02:28:39.765Z,7.1
2019-04-03T02:34:07.368Z,7.1
2019-04-03T02:39:36.081Z,7.1
2019-04-03T02:45:04.243Z,7.1
2019-04-03T02:50:31.381Z,7.1
2019-04-03T02:56:00.002Z,7.1
2019-04-03T03:01:38.083Z,7.1
2019-04-03T03:06:56.299Z,7
2019-04-03T03:12:27.614Z,7
2019-04-03T03:17:54.384Z,6.9
2019-04-03T03:23:23.059Z,6.9
2019-04-03T03:28:48.087Z,6.9
2019-04-03T03:34:44.562Z,6.8
2019-04-03T03:39:44.625Z,6.8
2019-04-03T03:45:12.830Z,6.7
2019-04-03T03:50:40.468Z,6.6
2019-04-03T03:56:09.527Z,6.5
2019-04-03T04:01:36.671Z,6.4
2019-04-03T04:07:05.421Z,6.3
2019-04-03T04:12:40.846Z,6.2
2019-04-03T04:18:02.552Z,6.1
2019-04-03T04:23:29.893Z,6.1
2019-04-03T04:28:58.457Z,6
2019-04-03T04:34:26.009Z,6
2019-04-03T04:45:22.470Z,5.9
2019-04-03T04:50:49.669Z,5.8
2019-04-03T04:56:17.240Z,5.8
2019-04-03T05:01:44.938Z,5.7
2019-04-03T05:07:16.310Z,5.7
2019-04-03T05:12:44.448Z,5.6
2019-04-03T05:18:09.425Z,5.6
2019-04-03T05:29:06.580Z,5.6
2019-04-03T05:34:34.180Z,5.7
2019-04-03T05:40:02.061Z,5.7
2019-04-03T05:45:30.352Z,5.8
2019-04-03T05:50:58.521Z,5.9
2019-04-03T05:56:28.745Z,5.9
2019-04-03T06:01:54.153Z,6.1
2019-04-03T06:07:21.580Z,6.2
2019-04-03T06:12:49.327Z,6.3
2019-04-03T06:18:18.198Z,6.5
2019-04-03T06:23:46.759Z,6.6
2019-04-03T06:29:15.085Z,6.8
2019-04-03T06:34:43.697Z,6.9
2019-04-03T06:40:11.317Z,7.1
2019-04-03T06:45:39.044Z,7.2
2019-04-03T06:51:07.652Z,7.4
2019-04-03T06:56:35.439Z,7.5
2019-04-03T07:02:04.180Z,7.6
2019-04-03T07:07:35.006Z,7.7
2019-04-03T07:13:00.601Z,7.8
2019-04-03T07:18:29.246Z,7.9
2019-04-03T07:23:56.936Z,8
2019-04-03T07:29:26.175Z,8.2
2019-04-03T07:35:04.404Z,8.3
2019-04-03T07:40:23.261Z,8.5
2019-04-03T07:45:51.092Z,8.6
2019-04-03T07:51:19.292Z,8.7
2019-04-03T07:56:47.762Z,8.8
2019-04-03T08:02:15.576Z,8.9
2019-04-03T08:07:44.421Z,9
2019-04-03T08:13:12.174Z,9.1
2019-04-03T08:18:39.962Z,9.2
2019-04-03T08:24:08.606Z,9.3
2019-04-03T08:29:37.814Z,9.5
2019-04-03T08:35:04.795Z,9.6
2019-04-03T08:40:32.450Z,9.7
2019-04-03T08:46:00.610Z,9.8
2019-04-03T08:51:28.269Z,9.9
2019-04-03T08:56:56.271Z,10
2019-04-03T09:02:24.102Z,10.1
2019-04-03T09:13:23.219Z,10.4
2019-04-03T09:18:50.042Z,10.5
2019-04-03T09:24:18.965Z,10.6
2019-04-03T09:29:48.086Z,10.7
2019-04-03T09:35:16.169Z,10.9
2019-04-03T09:40:47.203Z,11
2019-04-03T09:46:12.954Z,11.1
2019-04-03T09:51:42.033Z,11.2
2019-04-03T10:02:39.054Z,11.3
2019-04-03T10:08:08.284Z,11.4
2019-04-03T10:13:35.764Z,11.4
2019-04-03T10:19:03.236Z,11.4
2019-04-03T10:24:31.759Z,11.4
2019-04-03T10:30:00.554Z,11.2
2019-04-03T10:35:28.436Z,11.1
2019-04-03T10:40:57.073Z,11
2019-04-03T10:46:24.264Z,11
2019-04-03T10:51:53.265Z,11
2019-04-03T10:57:25.555Z,11
2019-04-03T11:02:49.252Z,10.9
2019-04-03T11:08:18.213Z,10.9
2019-04-03T11:13:46.243Z,10.9
2019-04-03T11:19:14.697Z,10.9
2019-04-03T11:24:43.445Z,10.9
2019-04-03T11:30:12.328Z,11
2019-04-03T11:35:39.472Z,11
2019-04-03T11:41:13.644Z,10.9
2019-04-03T11:46:41.240Z,10.8
2019-04-03T11:52:04.271Z,10.8
2019-04-03T11:57:33.295Z,10.7
2019-04-03T12:08:29.447Z,10.6
2019-04-03T12:13:58.241Z,10.5
2019-04-03T12:19:27.313Z,10.5
2019-04-03T12:24:56.095Z,10.5
2019-04-03T12:30:26.778Z,10.6
2019-04-03T12:41:22.464Z,10.5
2019-04-03T12:46:52.061Z,10.5
2019-04-03T12:52:19.101Z,10.4
2019-04-03T12:57:46.781Z,10.4
2019-04-03T13:03:15.853Z,10.4
2019-04-03T13:08:44.632Z,10.4
2019-04-03T13:14:22.338Z,10.5
2019-04-03T13:19:43.016Z,10.6
2019-04-03T13:25:11.906Z,10.6
2019-04-03T13:30:39.602Z,10.7
2019-04-03T13:36:08.558Z,10.8
2019-04-03T13:41:36.492Z,10.8
2019-04-03T13:47:06.079Z,10.9
2019-04-03T13:52:40.663Z,10.9
2019-04-03T13:58:02.444Z,11
2019-04-03T14:03:30.953Z,11.1
2019-04-03T14:08:59.573Z,11.1
2019-04-03T14:14:28.502Z,11
2019-04-03T14:19:57.474Z,10.9
2019-04-03T14:25:27.714Z,10.9
2019-04-03T14:30:54.422Z,11.1
2019-04-03T14:36:24.432Z,11.4
2019-04-03T14:41:58.130Z,11.5
2019-04-03T14:47:20.118Z,11.6
2019-04-03T14:52:49.626Z,11.7
2019-04-03T14:58:17.815Z,11.7
2019-04-03T15:03:46.850Z,11.6
2019-04-03T15:09:14.883Z,11.4
2019-04-03T15:14:43.851Z,11.2
2019-04-03T15:20:13.288Z,11
2019-04-03T15:25:42.583Z,10.8
2019-04-03T15:31:10.035Z,10.7
2019-04-03T15:36:37.778Z,10.6
2019-04-03T15:42:17.950Z,10.5
2019-04-03T15:47:39.033Z,10.4
2019-04-03T15:53:04.624Z,10.3
2019-04-03T15:58:33.581Z,10.1
2019-04-03T16:09:31.345Z,10
2019-04-03T16:15:00.525Z,9.9
2019-04-03T16:20:28.079Z,9.8
2019-04-03T16:25:56.984Z,9.8
2019-04-03T16:31:26.478Z,9.7
2019-04-03T16:36:54.385Z,9.7
2019-04-03T16:42:22.717Z,9.6
2019-04-03T16:47:50.908Z,9.6
2019-04-03T16:53:19.987Z,9.5
2019-04-03T16:58:46.341Z,9.5
2019-04-03T17:04:24.548Z,9.5
2019-04-03T17:09:44.191Z,9.4
2019-04-03T17:15:11.915Z,9.4
2019-04-03T17:20:40.612Z,9.4
2019-04-03T17:26:10.693Z,9.4
2019-04-03T17:31:38.706Z,9.4
2019-04-03T17:37:07.796Z,9.4
2019-04-03T17:42:37.046Z,9.3
2019-04-03T17:48:04.743Z,9.3
2019-04-03T17:53:32.772Z,9.2
2019-04-03T17:59:01.488Z,9.1
2019-04-03T18:04:30.672Z,9.1
2019-04-03T18:09:58.059Z,9
2019-04-03T18:15:27.389Z,9
2019-04-03T18:20:53.619Z,9
2019-04-03T18:26:22.444Z,8.9
2019-04-03T18:31:50.257Z,8.9
2019-04-03T18:37:18.002Z,8.9
2019-04-03T18:42:49.339Z,8.9
2019-04-03T18:48:16.459Z,8.8
2019-04-03T18:53:43.457Z,8.8
2019-04-03T18:59:15.809Z,8.7
2019-04-03T19:04:40.256Z,8.7
2019-04-03T19:10:07.983Z,8.7
2019-04-03T19:15:36.529Z,8.6
2019-04-03T19:21:04.278Z,8.6
2019-04-03T19:26:38.782Z,8.5
2019-04-03T19:31:59.882Z,8.4
2019-04-03T19:37:27.665Z,8.3
2019-04-03T19:42:55.272Z,8.1
2019-04-03T19:48:25.632Z,7.9
2019-04-03T19:53:58.920Z,7.7
2019-04-03T19:59:19.357Z,7.6
2019-04-03T20:04:47.702Z,7.5
2019-04-03T20:10:14.716Z,7.4
2019-04-03T20:15:42.504Z,7.3
2019-04-03T20:21:11.120Z,7.2
2019-04-03T20:26:38.912Z,7.2
2019-04-03T20:32:06.999Z,7.1
2019-04-03T20:37:34.954Z,7
2019-04-03T20:43:02.800Z,7
2019-04-03T20:48:30.436Z,6.9
2019-04-03T20:53:57.878Z,6.9
2019-04-03T20:59:25.649Z,6.8
2019-04-03T21:04:54.134Z,6.7
2019-04-03T21:10:22.673Z,6.7
2019-04-03T21:15:52.302Z,6.7
2019-04-03T21:21:19.872Z,6.6
2019-04-03T21:26:47.600Z,6.6
2019-04-03T21:32:16.161Z,6.5
2019-04-03T21:37:44.705Z,6.5
2019-04-03T21:43:13.303Z,6.5
2019-04-03T21:48:41.082Z,6.4
2019-04-03T21:54:19.526Z,6.4
2019-04-03T21:59:37.126Z,6.4
2019-04-03T22:05:06.998Z,6.4
2019-04-03T22:10:32.957Z,6.4
2019-04-03T22:16:01.176Z,6.4
2019-04-03T22:21:32.151Z,6.4
2019-04-03T22:27:04.870Z,6.4
2019-04-03T22:32:25.915Z,6.4
2019-04-03T22:37:53.222Z,6.4
2019-04-03T22:43:20.874Z,6.4
2019-04-03T22:48:49.480Z,6.4
2019-04-03T22:54:17.020Z,6.4
2019-04-03T22:59:44.610Z,6.4
2019-04-03T23:05:13.159Z,6.4
2019-04-03T23:10:41.818Z,6.4
2019-04-03T23:16:11.491Z,6.4
2019-04-03T23:21:37.897Z,6.5
2019-04-03T23:27:05.619Z,6.5
2019-04-03T23:32:34.050Z,6.5
2019-04-03T23:38:02.750Z,6.5
2019-04-03T23:43:31.349Z,6.5
2019-04-03T23:48:59.917Z,6.6
2019-04-03T23:54:27.513Z,6.6
